Weather at Eastern WV Regional Airport/Shepherd Field

Public forecast

Using degrees Fahrenheit for public forecast. Weather courtesy of forecast.io.

Current aviation weather report (METAR) for Eastern WV Regional Airport/Shepherd Field

Retrieved 2020/09/29 08:39 UTC (0 seconds ago):

KMRB 290839Z AUTO 16003KT 1 1/2SM BR CLR 17/17 A2977 RMK AO2 T01720172

Aviation forecast (TAF) for Eastern WV Regional Airport/Shepherd Field

Retrieved 2020/09/29 06:48 UTC (2 hours ago):

TAF KMRB 290544Z 2906/3006 15007KT P6SM SCT120 FM290900 20005KT P6SM BKN025 FM291200 28005KT P6SM BKN020 FM291600 33007KT P6SM VCSH OVC015 FM291900 33007KT P6SM -RA OVC015 FM300100 33006KT P6SM -RA OVC008